CheckWX is a tool to help pilots better visualize weather data.  It is not intended as a substitute for an official pre-flight weather briefing.

17:16:22 UTC

GUCY TAF
Conakry Airport
Conakry, Guinea
TAF GUCY 181100Z 1812/1918 28008KT 9999 SCT015 SCT110 PROB30 TEMPO 1822/1903 16012KT 5000 BKN013 FEW023CB OVC100

Jun-18@
12:00 UTC

Jun-18 @ 12:00 UTC

Jun-19@
18:00 UTC

Jun-19 @ 18:00 UTC

TAF GUCY 181100Z 1812/1918 28008KT 9999 SCT015 SCT110
Wind
  • 280° at 8 KTS
Cloud Levels
  • Scattered at 1,500' AGL
  • Scattered at 11,000' AGL

Jun-18@
22:00 UTC

Jun-18 @ 22:00 UTC

Jun-19@
03:00 UTC

Jun-19 @ 03:00 UTC

PROB30 TEMPO 1822/1903 16012KT 5000 BKN013 FEW023CB OVC100

Temporary - 30% Likelihood

Temporary - 30% Likelihood during this time.

Wind
  • 160° at 12 KTS
Cloud Levels
  • Broken at 1,300' AGL
  • Few at 2,300' AGL
  • Overcast at 10,000' AGL